Time;durP1;ratioP1;P1;durP2;ratioP2;P2;SDS_P1;SDS_P2;PMS_P1;PMS_P2;Temp;Humidity;BMP_temperature;BMP_pressure;BME280_temperature;BME280_humidity;BME280_pressure;Samples;Min_cycle;Max_cycle;Signal;HPM_P1;HPM_P2
2021/07/14 00:02:31;;;;;;;12.80;6.10;;;20.20;99.90;19.60;96112.00;;;;5083027;28;20249;-67
2021/07/14 00:05:24;;;;;;;8.63;6.17;;;20.10;99.90;19.60;96108.00;;;;5088011;28;20207;-66
2021/07/14 00:08:13;;;;;;;12.17;7.93;;;20.00;99.90;19.70;96110.00;;;;5096621;28;20222;-66
2021/07/14 00:11:04;;;;;;;9.70;6.13;;;19.90;99.90;19.80;96114.00;;;;5107541;28;20201;-66
2021/07/14 00:14:04;;;;;;;8.87;6.00;;;19.90;99.90;19.90;96127.00;;;;5107709;28;20218;-67
2021/07/14 00:17:18;;;;;;;9.33;5.70;;;19.90;99.90;20.10;96129.00;;;;5109038;28;20212;-65
2021/07/14 00:23:15;;;;;;;11.37;5.80;;;20.10;99.90;20.30;96151.00;;;;5080020;28;20223;-65
2021/07/14 00:26:05;;;;;;;12.00;5.73;;;20.20;99.90;20.20;96154.00;;;;5087474;28;20510;-65
2021/07/14 00:28:54;;;;;;;11.27;5.87;;;20.20;99.90;19.90;96151.00;;;;5087557;28;20214;-66
2021/07/14 00:31:43;;;;;;;9.57;6.10;;;20.20;99.90;19.90;96150.00;;;;5088199;28;20227;-67
2021/07/14 00:34:32;;;;;;;10.30;5.93;;;20.20;99.90;19.90;96176.00;;;;5108502;28;20202;-66
2021/07/14 00:37:22;;;;;;;9.53;5.53;;;20.20;99.90;19.90;96191.00;;;;5108579;28;20573;-66
2021/07/14 00:40:13;;;;;;;7.67;5.40;;;20.10;99.90;20.10;96182.00;;;;5107378;28;20190;-67
2021/07/14 00:43:03;;;;;;;9.73;5.33;;;20.10;99.90;20.20;96177.00;;;;5107972;28;20233;-67
2021/07/14 00:45:52;;;;;;;8.80;6.13;;;20.20;99.90;20.20;96177.00;;;;5107004;28;20669;-67
2021/07/14 00:48:41;;;;;;;6.30;5.67;;;20.20;99.90;20.10;96180.00;;;;5106459;28;20688;-67
2021/07/14 00:51:31;;;;;;;9.10;5.10;;;20.20;99.90;20.00;96180.00;;;;5107414;28;20206;-66
2021/07/14 00:54:19;;;;;;;10.73;6.60;;;20.20;99.90;20.20;96189.00;;;;5106294;28;20213;-67
2021/07/14 00:57:08;;;;;;;6.03;4.93;;;20.20;99.90;20.20;96185.00;;;;5087230;28;20213;-67
2021/07/14 00:59:59;;;;;;;12.83;5.57;;;20.20;99.90;20.20;96190.00;;;;5086419;28;20200;-67
2021/07/14 01:02:48;;;;;;;6.33;5.47;;;20.30;99.90;20.00;96203.00;;;;5107511;28;20237;-67
2021/07/14 01:05:44;;;;;;;10.10;6.40;;;20.30;99.90;19.80;96223.00;;;;5106976;28;20202;-67
2021/07/14 01:08:43;;;;;;;9.20;6.30;;;20.20;99.90;19.60;96234.00;;;;5097589;28;20206;-67
2021/07/14 01:11:37;;;;;;;13.70;6.27;;;20.10;99.90;19.40;96255.00;;;;5107036;28;20210;-67
2021/07/14 01:14:41;;;;;;;9.53;6.50;;;20.00;99.90;19.30;96277.00;;;;5107357;28;20445;-67
2021/07/14 01:17:37;;;;;;;13.70;6.80;;;19.80;99.90;19.50;96242.00;;;;5107488;28;20202;-68
2021/07/14 01:20:46;;;;;;;13.73;7.37;;;19.80;99.90;19.50;96250.00;;;;5107132;28;20600;-68
2021/07/14 01:23:46;;;;;;;12.60;7.43;;;19.70;99.90;19.50;96264.00;;;;5107233;28;20605;-68
2021/07/14 01:27:06;;;;;;;10.60;7.13;;;19.80;99.90;19.30;96259.00;;;;5107600;28;20214;-69
2021/07/14 01:29:57;;;;;;;16.87;7.30;;;19.70;99.90;19.40;96258.00;;;;5107194;28;20255;-67
2021/07/14 01:32:49;;;;;;;13.70;7.07;;;19.60;99.90;19.30;96256.00;;;;5107721;28;20218;-68
2021/07/14 01:35:43;;;;;;;14.83;6.90;;;19.70;99.90;19.40;96243.00;;;;5105222;28;20593;-68
2021/07/14 01:38:36;;;;;;;19.50;8.13;;;19.60;99.90;19.30;96237.00;;;;5106599;28;20225;-68
2021/07/14 01:41:27;;;;;;;10.17;6.70;;;19.60;99.90;19.30;96245.00;;;;5107016;28;20213;-68
2021/07/14 01:44:19;;;;;;;18.57;7.40;;;19.60;99.90;19.20;96233.00;;;;5106532;28;20226;-68
2021/07/14 01:47:08;;;;;;;11.57;7.07;;;19.50;99.90;19.20;96222.00;;;;5108253;28;20699;-67
2021/07/14 01:49:58;;;;;;;11.70;6.40;;;19.50;99.90;19.30;96212.00;;;;5105565;28;20206;-68
2021/07/14 01:52:49;;;;;;;7.87;5.93;;;19.50;99.90;19.30;96241.00;;;;5107462;28;20253;-68
2021/07/14 01:55:41;;;;;;;12.73;7.07;;;19.50;99.90;19.20;96261.00;;;;5107169;28;20673;-68
2021/07/14 01:58:30;;;;;;;12.90;7.57;;;19.50;99.90;18.90;96284.00;;;;5107585;28;20204;-68
2021/07/14 02:01:21;;;;;;;12.23;7.70;;;19.40;99.90;19.00;96246.00;;;;5105385;28;20229;-68
2021/07/14 02:04:31;;;;;;;13.90;6.97;;;19.40;99.90;19.10;96201.00;;;;5104597;28;20285;-68
2021/07/14 02:07:25;;;;;;;12.90;7.50;;;19.30;99.90;19.10;96194.00;;;;5099726;28;20217;-68
2021/07/14 02:10:15;;;;;;;12.13;6.70;;;19.30;99.90;19.00;96201.00;;;;5107349;28;20206;-68
2021/07/14 02:13:04;;;;;;;17.43;7.13;;;19.30;99.90;18.90;96193.00;;;;5094735;28;20226;-68
2021/07/14 02:15:57;;;;;;;17.03;6.77;;;19.30;99.90;19.10;96182.00;;;;5106725;28;20202;-67
2021/07/14 02:18:55;;;;;;;18.50;8.83;;;19.30;99.90;19.10;96179.00;;;;5106982;28;20198;-68
2021/07/14 02:21:44;;;;;;;10.57;5.97;;;19.30;99.90;19.10;96197.00;;;;5105265;28;20214;-67
2021/07/14 02:24:34;;;;;;;13.10;6.97;;;19.30;99.90;18.80;96235.00;;;;5106114;28;20198;-68
2021/07/14 02:27:23;;;;;;;12.67;7.57;;;19.20;99.90;19.00;96243.00;;;;5106245;28;20206;-68
2021/07/14 02:30:18;;;;;;;15.47;6.50;;;19.20;99.90;19.20;96219.00;;;;5105861;28;20209;-69
2021/07/14 02:33:11;;;;;;;13.27;6.63;;;19.20;99.90;19.30;96232.00;;;;5106150;28;20282;-69
2021/07/14 02:36:05;;;;;;;10.37;6.57;;;19.30;99.90;19.10;96261.00;;;;5105596;28;20203;-69
2021/07/14 02:38:57;;;;;;;15.67;6.33;;;19.30;99.90;19.10;96262.00;;;;5105801;28;20208;-68
2021/07/14 02:41:55;;;;;;;15.83;7.27;;;19.30;99.90;19.00;96246.00;;;;5105330;28;20226;-69
2021/07/14 02:44:45;;;;;;;9.90;4.83;;;19.30;99.90;19.00;96216.00;;;;5106220;28;20612;-69
2021/07/14 02:47:37;;;;;;;10.20;5.90;;;19.30;99.90;19.10;96202.00;;;;5106930;28;20202;-69
2021/07/14 02:50:30;;;;;;;11.83;5.37;;;19.30;99.90;19.10;96202.00;;;;5106404;28;20198;-69
2021/07/14 02:53:25;;;;;;;9.80;4.37;;;19.30;99.90;19.20;96209.00;;;;5105650;28;20225;-67
2021/07/14 02:56:19;;;;;;;10.33;5.40;;;19.30;99.90;19.10;96263.00;;;;5105032;28;20535;-69
2021/07/14 02:59:10;;;;;;;21.67;6.93;;;19.30;99.90;18.90;96279.00;;;;5105410;28;20209;-68
2021/07/14 03:02:01;;;;;;;17.07;6.53;;;19.20;99.90;18.90;96277.00;;;;5092818;28;20222;-69
2021/07/14 03:04:52;;;;;;;12.23;5.87;;;19.20;99.90;18.90;96228.00;;;;5078768;28;20667;-67
2021/07/14 03:07:45;;;;;;;15.87;6.63;;;19.20;99.90;18.90;96203.00;;;;5082310;28;20196;-68
2021/07/14 03:10:36;;;;;;;12.23;6.13;;;19.20;99.90;18.90;96210.00;;;;5085139;28;20203;-69
2021/07/14 03:13:26;;;;;;;12.60;5.40;;;19.20;99.90;18.90;96230.00;;;;5085530;28;20225;-69
2021/07/14 03:16:17;;;;;;;13.93;7.70;;;19.10;99.90;18.90;96253.00;;;;5091600;28;20761;-69
2021/07/14 03:19:07;;;;;;;13.33;5.33;;;19.10;99.90;18.90;96270.00;;;;5099103;28;20267;-69
2021/07/14 03:21:57;;;;;;;13.60;4.67;;;19.10;99.90;18.90;96272.00;;;;5104973;28;20226;-69
2021/07/14 03:24:47;;;;;;;11.37;5.13;;;19.10;99.90;18.90;96260.00;;;;5094033;28;20217;-69
2021/07/14 03:27:37;;;;;;;10.57;4.60;;;19.10;99.90;18.80;96278.00;;;;5105219;28;20206;-70
2021/07/14 03:30:26;;;;;;;12.00;5.77;;;19.00;99.90;18.80;96292.00;;;;5104481;28;20700;-70
2021/07/14 03:33:16;;;;;;;11.17;5.67;;;19.00;99.90;18.80;96311.00;;;;5104956;28;20735;-69
2021/07/14 03:36:08;;;;;;;12.77;5.33;;;19.00;99.90;18.80;96305.00;;;;5105629;28;20692;-69
2021/07/14 03:38:57;;;;;;;10.03;5.20;;;19.00;99.90;18.80;96287.00;;;;5107837;28;20849;-69
2021/07/14 03:41:48;;;;;;;7.53;4.57;;;19.00;99.90;18.80;96264.00;;;;5087527;28;20234;-69
2021/07/14 03:44:40;;;;;;;12.80;4.87;;;19.00;99.90;18.90;96256.00;;;;5090434;28;20219;-69
2021/07/14 03:47:29;;;;;;;10.27;3.87;;;19.00;99.90;18.70;96254.00;;;;5098254;28;20199;-68
2021/07/14 03:50:18;;;;;;;16.83;4.63;;;19.00;99.90;18.70;96279.00;;;;5088014;28;20209;-70
2021/07/14 03:53:07;;;;;;;10.13;3.97;;;18.90;99.90;18.70;96216.00;;;;5089226;28;20223;-68
2021/07/14 03:55:56;;;;;;;7.60;3.63;;;18.90;99.90;18.50;96165.00;;;;5088802;28;20214;-69
2021/07/14 03:58:46;;;;;;;8.03;4.80;;;18.90;99.90;18.50;96232.00;;;;5079091;28;20209;-70
2021/07/14 04:01:37;;;;;;;5.60;3.17;;;18.80;99.90;18.60;96255.00;;;;5107055;28;20213;-69
2021/07/14 04:04:26;;;;;;;13.93;4.73;;;18.80;99.90;18.70;96244.00;;;;5105571;28;20219;-69
2021/07/14 04:07:21;;;;;;;14.43;4.77;;;18.80;99.90;18.70;96272.00;;;;5101937;28;20208;-69
2021/07/14 04:10:11;;;;;;;9.00;3.40;;;18.80;99.90;18.50;96303.00;;;;5107492;28;20198;-69
2021/07/14 04:13:00;;;;;;;9.27;4.20;;;18.80;99.90;18.50;96315.00;;;;5108827;28;20223;-68
2021/07/14 04:15:49;;;;;;;7.37;3.47;;;18.80;99.90;18.30;96302.00;;;;5107002;28;20199;-68
2021/07/14 04:18:40;;;;;;;8.53;3.47;;;18.70;99.90;18.30;96280.00;;;;5087892;28;20207;-69
2021/07/14 04:21:29;;;;;;;9.30;2.90;;;18.60;99.90;18.20;96246.00;;;;5076881;28;20203;-69
2021/07/14 04:24:18;;;;;;;5.90;3.20;;;18.60;99.90;18.10;96212.00;;;;5108449;28;20222;-68
2021/07/14 04:27:09;;;;;;;5.77;3.20;;;18.50;99.90;18.10;96199.00;;;;5108190;28;20206;-69
2021/07/14 04:29:58;;;;;;;8.80;2.67;;;18.40;99.90;18.10;96199.00;;;;5087480;28;20248;-69
2021/07/14 04:32:47;;;;;;;6.70;2.93;;;18.40;99.90;18.20;96189.00;;;;5107928;28;20263;-69
2021/07/14 04:35:37;;;;;;;13.97;4.47;;;18.40;99.90;18.10;96201.00;;;;5087521;28;20211;-69
2021/07/14 04:38:26;;;;;;;4.50;2.20;;;18.40;99.90;18.00;96194.00;;;;5109269;28;20689;-69
2021/07/14 04:41:15;;;;;;;6.60;2.83;;;18.30;99.90;17.90;96194.00;;;;5108019;28;20209;-68
2021/07/14 04:44:05;;;;;;;9.53;2.87;;;18.30;99.90;17.90;96231.00;;;;5108108;28;20227;-70
2021/07/14 04:46:54;;;;;;;4.73;2.30;;;18.20;99.90;17.40;96276.00;;;;5108454;28;20210;-70
2021/07/14 04:49:43;;;;;;;14.60;3.33;;;18.10;99.90;17.60;96284.00;;;;5105770;28;20574;-68
2021/07/14 04:52:34;;;;;;;5.80;2.80;;;18.00;99.90;17.70;96297.00;;;;5108270;28;20589;-69
2021/07/14 04:55:24;;;;;;;8.27;3.37;;;18.00;99.90;17.80;96315.00;;;;5107299;28;20676;-69
2021/07/14 04:58:13;;;;;;;10.30;2.90;;;17.90;99.90;17.70;96339.00;;;;5108247;28;20224;-70
2021/07/14 05:01:02;;;;;;;7.60;3.50;;;17.90;99.90;17.70;96329.00;;;;5105747;28;20207;-69
2021/07/14 05:03:50;;;;;;;9.13;2.67;;;17.90;99.90;17.70;96307.00;;;;5107912;28;20241;-68
2021/07/14 05:06:40;;;;;;;5.13;2.57;;;17.90;99.90;17.50;96273.00;;;;5093448;28;20202;-70
2021/07/14 05:09:30;;;;;;;3.10;1.70;;;17.90;99.90;17.30;96233.00;;;;5107541;28;20613;-70
2021/07/14 05:12:19;;;;;;;6.83;2.30;;;17.80;99.90;17.50;96197.00;;;;5107957;28;20275;-67
2021/07/14 05:15:08;;;;;;;13.70;3.40;;;17.80;99.90;17.30;96232.00;;;;5107278;28;20205;-67
2021/07/14 05:17:57;;;;;;;11.33;3.33;;;17.70;99.90;17.30;96257.00;;;;5107909;28;20206;-65
2021/07/14 05:20:46;;;;;;;6.60;3.00;;;17.70;99.90;17.60;96259.00;;;;5105646;28;20210;-69
2021/07/14 05:23:35;;;;;;;8.53;4.27;;;17.70;99.90;17.60;96251.00;;;;5085406;28;20227;-68
2021/07/14 05:26:26;;;;;;;6.90;4.03;;;17.80;99.90;17.40;96267.00;;;;5086432;28;20700;-69
2021/07/14 05:29:14;;;;;;;5.17;2.87;;;17.80;99.90;17.50;96254.00;;;;5087195;28;20209;-68
2021/07/14 05:32:04;;;;;;;4.03;2.50;;;17.80;99.90;17.40;96245.00;;;;5106412;28;20226;-70
2021/07/14 05:34:53;;;;;;;3.97;2.20;;;17.80;99.90;17.40;96220.00;;;;5087150;28;20688;-67
2021/07/14 05:37:42;;;;;;;3.73;2.33;;;17.80;99.90;17.40;96229.00;;;;5106204;28;20213;-70
2021/07/14 05:40:31;;;;;;;5.50;3.83;;;17.70;99.90;17.40;96244.00;;;;5105189;28;20198;-69
2021/07/14 05:43:21;;;;;;;9.40;4.40;;;17.70;99.90;17.50;96214.00;;;;5106487;28;20233;-68
2021/07/14 05:46:10;;;;;;;8.53;3.60;;;17.70;99.90;17.60;96194.00;;;;5106052;28;20203;-69
2021/07/14 05:49:03;;;;;;;5.60;3.10;;;17.80;99.90;17.30;96213.00;;;;5105555;28;20202;-69
2021/07/14 05:51:51;;;;;;;5.90;3.20;;;17.80;99.90;17.20;96255.00;;;;5105435;28;20604;-70
2021/07/14 05:54:41;;;;;;;10.33;4.40;;;17.70;99.90;17.30;96267.00;;;;5085224;28;20203;-70
2021/07/14 05:57:30;;;;;;;9.60;4.70;;;17.60;99.90;17.30;96241.00;;;;5087710;28;20581;-69
2021/07/14 06:00:20;;;;;;;7.50;3.03;;;17.60;99.90;17.40;96236.00;;;;5086276;28;20584;-70
2021/07/14 06:03:09;;;;;;;10.17;3.53;;;17.60;99.90;17.60;96246.00;;;;5086685;28;20687;-70
2021/07/14 06:05:58;;;;;;;6.40;3.30;;;17.70;99.90;17.90;96258.00;;;;5093989;28;20210;-69
2021/07/14 06:08:48;;;;;;;5.40;2.93;;;17.80;99.90;17.90;96286.00;;;;5095244;28;20586;-69
2021/07/14 06:11:37;;;;;;;8.47;2.77;;;17.90;99.90;17.80;96293.00;;;;5107463;28;20210;-69
2021/07/14 06:14:26;;;;;;;4.77;2.87;;;18.00;99.90;17.80;96300.00;;;;5107546;28;20202;-69
2021/07/14 06:17:16;;;;;;;5.27;3.17;;;18.00;99.90;17.90;96308.00;;;;5106260;28;20671;-70
2021/07/14 06:20:07;;;;;;;11.00;4.53;;;18.00;99.90;18.00;96327.00;;;;5105950;28;20673;-69
2021/07/14 06:22:56;;;;;;;6.87;2.77;;;18.00;99.90;18.00;96338.00;;;;5106505;28;20752;-70
2021/07/14 06:25:45;;;;;;;6.93;2.53;;;18.10;99.90;18.10;96341.00;;;;5106427;28;20641;-69
2021/07/14 06:28:34;;;;;;;10.00;2.70;;;18.10;99.90;18.10;96338.00;;;;5107360;28;20206;-69
2021/07/14 06:31:24;;;;;;;4.53;2.43;;;18.20;99.90;18.20;96343.00;;;;5105272;28;20198;-70
2021/07/14 06:34:14;;;;;;;7.00;3.10;;;18.20;99.90;18.20;96351.00;;;;5106033;28;20198;-70
2021/07/14 06:37:03;;;;;;;4.33;2.50;;;18.30;99.90;18.10;96369.00;;;;5105400;28;20211;-70
2021/07/14 06:39:53;;;;;;;4.37;2.30;;;18.30;99.90;18.10;96348.00;;;;5106711;28;20194;-69
2021/07/14 06:42:42;;;;;;;5.50;2.10;;;18.30;99.90;18.20;96353.00;;;;5106016;28;20253;-69
2021/07/14 06:45:31;;;;;;;5.03;3.37;;;18.30;99.90;18.10;96355.00;;;;5106342;28;20222;-69
2021/07/14 06:48:20;;;;;;;5.93;2.83;;;18.30;99.90;18.00;96351.00;;;;5106620;28;20203;-69
2021/07/14 06:51:11;;;;;;;3.80;2.33;;;18.30;99.90;18.20;96332.00;;;;5105647;28;20198;-69
2021/07/14 06:53:59;;;;;;;3.53;3.10;;;18.30;99.90;18.20;96330.00;;;;5106899;28;20207;-69
2021/07/14 06:56:48;;;;;;;7.13;2.70;;;18.30;99.90;18.30;96329.00;;;;5103542;28;20677;-69
2021/07/14 06:59:37;;;;;;;11.17;3.73;;;18.40;99.90;18.20;96327.00;;;;5100842;28;20202;-69
2021/07/14 07:02:26;;;;;;;5.33;3.40;;;18.40;99.90;18.50;96302.00;;;;5106344;28;20230;-69
2021/07/14 07:05:15;;;;;;;8.73;3.63;;;18.50;99.90;18.60;96286.00;;;;5101432;28;20221;-69
2021/07/14 07:08:07;;;;;;;5.60;3.17;;;18.60;99.90;18.50;96296.00;;;;5101318;28;20198;-70
2021/07/14 07:10:56;;;;;;;6.13;3.93;;;18.60;99.90;18.90;96271.00;;;;5106464;28;20555;-70
2021/07/14 07:13:45;;;;;;;4.83;2.90;;;18.80;99.90;18.90;96277.00;;;;5108849;28;20209;-69
2021/07/14 07:16:34;;;;;;;3.53;2.00;;;18.90;99.90;18.90;96293.00;;;;5109710;28;20626;-69
2021/07/14 07:19:22;;;;;;;7.27;2.17;;;19.00;99.90;19.30;96273.00;;;;5110466;28;20728;-69
2021/07/14 07:22:11;;;;;;;5.73;2.73;;;19.10;99.90;19.60;96269.00;;;;5110299;28;20603;-69
2021/07/14 07:25:02;;;;;;;7.57;3.63;;;19.30;99.90;19.50;96270.00;;;;5110427;28;20228;-69
2021/07/14 07:27:51;;;;;;;9.33;2.77;;;19.50;99.90;19.70;96262.00;;;;5103363;28;20202;-69
2021/07/14 07:30:41;;;;;;;6.50;2.57;;;19.70;99.90;19.80;96265.00;;;;5106525;28;20199;-70
2021/07/14 07:33:30;;;;;;;4.50;2.73;;;19.80;99.90;19.80;96252.00;;;;5096753;27;20214;-69
2021/07/14 07:36:19;;;;;;;10.17;3.30;;;20.00;99.90;20.10;96244.00;;;;5097909;28;20204;-69
2021/07/14 07:39:08;;;;;;;3.83;2.87;;;20.10;99.90;20.30;96243.00;;;;5102042;28;20240;-69
2021/07/14 07:42:02;;;;;;;5.43;2.43;;;20.20;99.90;20.50;96235.00;;;;5106470;28;20237;-70
2021/07/14 07:44:51;;;;;;;6.23;2.77;;;20.40;99.90;20.70;96242.00;;;;5110534;28;20222;-70
2021/07/14 07:47:40;;;;;;;6.00;2.63;;;20.60;99.90;21.20;96261.00;;;;5108920;28;20207;-69
2021/07/14 07:50:28;;;;;;;7.83;2.90;;;20.80;99.90;21.90;96267.00;;;;5108740;28;20673;-69
2021/07/14 07:53:18;;;;;;;8.17;3.17;;;21.10;99.90;22.00;96281.00;;;;5108973;28;20260;-69
2021/07/14 07:56:07;;;;;;;3.63;2.50;;;21.40;99.90;22.00;96285.00;;;;5109199;28;20198;-69
2021/07/14 07:58:58;;;;;;;7.97;2.27;;;21.70;99.90;22.20;96272.00;;;;5109645;28;20198;-69
2021/07/14 08:01:47;;;;;;;5.30;2.20;;;21.90;99.90;22.60;96272.00;;;;5108307;28;20231;-69
2021/07/14 08:04:36;;;;;;;2.97;1.90;;;22.10;99.90;22.50;96288.00;;;;5108609;28;20203;-69
2021/07/14 08:07:24;;;;;;;14.70;3.10;;;22.30;99.90;22.30;96286.00;;;;5108720;28;20366;-69
2021/07/14 08:10:15;;;;;;;3.87;2.00;;;22.40;99.90;22.50;96288.00;;;;5107333;28;20209;-69
2021/07/14 08:13:05;;;;;;;12.17;3.00;;;22.40;99.90;22.60;96290.00;;;;5108942;28;20222;-69
2021/07/14 08:15:56;;;;;;;7.47;2.40;;;22.50;99.90;22.80;96299.00;;;;5107319;28;20203;-69
2021/07/14 08:18:45;;;;;;;6.77;2.43;;;22.50;99.90;23.00;96294.00;;;;5108931;28;20199;-69
2021/07/14 08:21:34;;;;;;;5.83;2.77;;;22.70;99.90;23.10;96283.00;;;;5107091;28;20206;-69
2021/07/14 08:24:23;;;;;;;6.87;2.27;;;22.80;99.90;23.10;96299.00;;;;5107425;28;20705;-69
2021/07/14 08:27:11;;;;;;;5.93;2.50;;;22.90;99.90;23.00;96308.00;;;;5109047;28;20198;-68
2021/07/14 08:30:01;;;;;;;7.37;3.83;;;23.00;99.90;22.80;96318.00;;;;5106890;28;20210;-68
2021/07/14 08:32:51;;;;;;;3.97;2.77;;;22.90;99.90;22.60;96312.00;;;;5106541;28;20230;-69
2021/07/14 08:35:41;;;;;;;8.83;3.30;;;22.90;99.90;21.70;96306.00;;;;5101621;28;20191;-70
2021/07/14 08:38:29;;;;;;;5.03;2.83;;;22.70;99.90;22.50;96290.00;;;;5099874;28;20207;-69
2021/07/14 08:41:21;;;;;;;8.77;3.57;;;22.60;99.90;23.20;96311.00;;;;5106121;28;20299;-70
2021/07/14 08:44:13;;;;;;;3.30;2.13;;;22.70;99.90;22.60;96309.00;;;;5107281;28;20206;-69
2021/07/14 08:47:02;;;;;;;4.80;2.97;;;22.80;99.90;23.40;96309.00;;;;5103573;28;20222;-68
2021/07/14 08:49:53;;;;;;;8.27;3.40;;;23.10;99.90;23.60;96336.00;;;;5100537;28;20586;-68
2021/07/14 08:52:47;;;;;;;8.03;3.20;;;23.20;99.90;23.30;96340.00;;;;5104783;28;20214;-68
2021/07/14 08:55:36;;;;;;;3.60;2.30;;;23.30;99.90;23.50;96337.00;;;;5106553;28;20203;-68
2021/07/14 08:58:27;;;;;;;11.30;3.90;;;23.40;99.90;23.70;96352.00;;;;5107636;28;20207;-69
2021/07/14 09:01:16;;;;;;;5.80;3.30;;;23.50;99.90;23.80;96355.00;;;;5101361;28;20208;-69
2021/07/14 09:04:06;;;;;;;7.67;2.97;;;23.50;99.90;24.40;96341.00;;;;5104239;28;20611;-68
2021/07/14 09:06:57;;;;;;;8.43;4.37;;;23.80;99.90;24.60;96363.00;;;;5096621;28;20225;-68
2021/07/14 09:09:48;;;;;;;6.03;3.23;;;24.10;99.90;24.70;96361.00;;;;5102943;28;20198;-68
2021/07/14 09:12:38;;;;;;;6.40;3.20;;;24.30;99.90;24.30;96372.00;;;;5106454;28;20222;-68
2021/07/14 09:15:31;;;;;;;6.93;3.23;;;24.40;99.90;23.50;96338.00;;;;5106687;28;20217;-68
2021/07/14 09:18:24;;;;;;;6.57;3.83;;;24.30;99.90;23.80;96342.00;;;;5106915;28;20574;-69
2021/07/14 09:21:17;;;;;;;9.33;4.00;;;24.30;99.90;24.90;96338.00;;;;5106403;28;20235;-68
2021/07/14 09:24:32;;;;;;;13.10;3.70;;;24.40;99.90;25.60;96344.00;;;;5107542;28;20256;-68
2021/07/14 09:27:27;;;;;;;6.67;2.83;;;24.70;99.90;26.10;96349.00;;;;5107467;28;20219;-68
2021/07/14 09:30:17;;;;;;;7.70;3.17;;;25.20;99.90;25.40;96368.00;;;;5106140;28;20589;-69
2021/07/14 09:33:08;;;;;;;7.00;3.43;;;25.30;99.90;24.80;96348.00;;;;5106654;28;20755;-69
2021/07/14 09:35:59;;;;;;;7.30;3.43;;;25.20;99.90;25.00;96348.00;;;;5105453;28;20204;-68
2021/07/14 09:38:48;;;;;;;8.07;3.47;;;25.10;99.90;24.90;96299.00;;;;5105867;28;20209;-68
2021/07/14 09:41:38;;;;;;;5.83;2.80;;;25.10;99.90;25.20;96308.00;;;;5104780;28;20210;-68
2021/07/14 09:44:27;;;;;;;5.70;4.13;;;25.20;99.90;25.70;96299.00;;;;5106606;28;20200;-68
2021/07/14 09:47:19;;;;;;;6.40;3.97;;;25.30;99.90;26.00;96331.00;;;;5104620;28;20220;-68
2021/07/14 09:50:09;;;;;;;7.37;3.53;;;25.50;99.90;25.40;96329.00;;;;5105006;28;20212;-67
2021/07/14 09:53:03;;;;;;;7.33;3.77;;;25.40;99.90;26.20;96324.00;;;;5105840;28;20229;-67
2021/07/14 09:55:55;;;;;;;6.60;3.70;;;25.60;99.90;25.70;96342.00;;;;5106042;28;20212;-68
2021/07/14 09:58:46;;;;;;;6.70;3.17;;;25.60;99.90;24.70;96330.00;;;;5106090;28;20728;-67
2021/07/14 10:01:36;;;;;;;4.83;3.10;;;25.60;99.90;24.40;96340.00;;;;5104479;28;20209;-68
2021/07/14 10:04:30;;;;;;;8.13;3.78;;;25.20;99.90;25.40;96299.00;;;;5104439;28;20402;-68
2021/07/14 10:07:26;;;;;;;10.03;3.27;;;25.20;99.90;25.80;96326.00;;;;5099907;27;20802;-68
2021/07/14 10:10:16;;;;;;;6.43;2.77;;;25.40;99.90;25.40;96332.00;;;;5099174;28;20681;-68
2021/07/14 10:13:09;;;;;;;10.93;3.60;;;25.40;99.90;24.50;96321.00;;;;5102667;28;20234;-68
2021/07/14 10:16:07;;;;;;;7.60;2.60;;;25.30;99.90;24.70;96315.00;;;;5106648;28;20202;-68
2021/07/14 10:19:03;;;;;;;9.17;4.03;;;25.20;99.90;25.20;96311.00;;;;5105509;28;20209;-68
2021/07/14 10:21:52;;;;;;;9.17;2.90;;;25.10;99.90;26.40;96312.00;;;;5105662;28;20268;-68
2021/07/14 10:24:42;;;;;;;5.63;3.30;;;25.40;99.90;26.20;96318.00;;;;5105480;28;20213;-68
2021/07/14 10:27:31;;;;;;;4.93;2.97;;;25.60;99.90;25.90;96311.00;;;;5106098;28;20237;-68
2021/07/14 10:30:22;;;;;;;7.87;3.33;;;25.70;99.90;25.90;96318.00;;;;5105159;28;20218;-68
2021/07/14 10:33:13;;;;;;;6.03;2.90;;;25.70;99.90;25.60;96296.00;;;;5105718;28;20230;-68
2021/07/14 10:36:03;;;;;;;10.83;3.33;;;25.70;99.90;25.50;96319.00;;;;5105551;28;20205;-68
2021/07/14 10:38:55;;;;;;;8.40;3.07;;;26.20;99.90;25.50;96309.00;;;;5106375;28;20209;-69
2021/07/14 10:41:44;;;;;;;6.77;4.40;;;25.60;99.90;25.50;96309.00;;;;5106224;28;20241;-68
2021/07/14 10:44:33;;;;;;;5.53;3.27;;;25.50;99.90;25.40;96307.00;;;;5106512;28;20207;-69
2021/07/14 10:47:22;;;;;;;7.63;3.57;;;25.40;99.90;25.20;96305.00;;;;5105141;28;20219;-68
2021/07/14 10:50:15;;;;;;;8.37;3.47;;;25.40;99.90;25.10;96319.00;;;;5105314;28;20214;-67
2021/07/14 10:53:06;;;;;;;10.50;3.07;;;25.40;99.90;25.10;96300.00;;;;5106516;28;20228;-68
2021/07/14 10:55:56;;;;;;;5.17;3.27;;;25.20;99.90;26.90;96264.00;;;;5106769;28;20209;-68
2021/07/14 10:58:48;;;;;;;9.33;4.03;;;25.60;99.90;28.20;96309.00;;;;5106281;28;20215;-68
2021/07/14 11:01:47;;;;;;;9.03;3.77;;;26.30;99.90;27.00;96310.00;;;;5104682;27;20205;-68
2021/07/14 11:04:53;;;;;;;5.73;3.37;;;26.50;99.90;28.10;96333.00;;;;5093807;28;20205;-67
2021/07/14 11:07:46;;;;;;;8.57;3.13;;;27.00;99.90;27.60;96317.00;;;;5099996;28;20215;-68
2021/07/14 11:10:38;;;;;;;7.90;3.50;;;27.10;99.90;27.40;96279.00;;;;5096724;28;20551;-68
2021/07/14 11:13:30;;;;;;;10.13;4.00;;;27.30;99.90;27.90;96261.00;;;;5104386;28;20233;-68
2021/07/14 11:16:31;;;;;;;7.50;3.03;;;27.50;99.90;27.30;96303.00;;;;5104844;28;20205;-68
2021/07/14 11:19:20;;;;;;;11.27;3.87;;;27.40;99.90;28.90;96272.00;;;;5104832;28;20917;-69
2021/07/14 11:22:09;;;;;;;6.57;3.60;;;27.70;99.90;28.90;96263.00;;;;5104317;28;20233;-69
2021/07/14 11:25:00;;;;;;;4.13;3.17;;;28.10;99.90;29.80;96249.00;;;;5104829;28;20736;-71
2021/07/14 11:27:52;;;;;;;6.07;3.10;;;28.60;99.90;30.10;96245.00;;;;5104670;28;20284;-71
2021/07/14 11:30:45;;;;;;;10.07;5.67;;;29.00;98.50;31.20;96255.00;;;;5104683;28;20611;-71
2021/07/14 11:33:36;;;;;;;5.10;3.50;;;29.50;97.50;30.80;96243.00;;;;5105032;28;20832;-71
2021/07/14 11:36:41;;;;;;;6.07;3.60;;;29.90;91.80;29.80;96239.00;;;;5104625;28;20201;-70
2021/07/14 11:39:31;;;;;;;6.15;3.17;;;29.90;88.20;31.00;96246.00;;;;5104357;28;20213;-69
2021/07/14 11:42:22;;;;;;;7.82;5.22;;;30.20;86.60;30.90;96236.00;;;;5104705;28;20236;-70
2021/07/14 11:45:11;;;;;;;6.40;3.13;;;30.30;83.50;30.50;96219.00;;;;5104821;28;20210;-70
2021/07/14 11:48:02;;;;;;;8.13;3.55;;;30.40;81.90;28.00;96211.00;;;;5105038;28;20263;-68
2021/07/14 11:50:54;;;;;;;12.73;3.55;;;29.30;78.90;29.60;96212.00;;;;5095695;28;20208;-69
2021/07/14 11:53:45;;;;;;;4.57;3.38;;;29.30;83.00;30.90;96247.00;;;;5104772;28;20314;-69
2021/07/14 11:56:39;;;;;;;9.85;4.38;;;29.70;80.70;30.40;96282.00;;;;5103686;28;20701;-70
2021/07/14 11:59:30;;;;;;;8.75;3.72;;;29.80;80.80;31.10;96215.00;;;;5105503;28;21136;-70
2021/07/14 12:02:22;;;;;;;4.20;3.00;;;30.10;83.90;31.40;96211.00;;;;5108371;28;20229;-69
2021/07/14 12:05:12;;;;;;;8.02;3.50;;;30.40;82.40;30.50;96214.00;;;;5102403;28;20587;-70
2021/07/14 12:08:12;;;;;;;7.63;3.50;;;30.40;81.30;30.10;96279.00;;;;5111961;27;20228;-70
2021/07/14 12:11:01;;;;;;;7.10;3.33;;;30.20;81.70;29.10;96283.00;;;;5108113;28;20206;-69
2021/07/14 12:14:01;;;;;;;4.78;3.00;;;29.80;81.90;29.30;96246.00;;;;5102903;28;20203;-68
2021/07/14 12:16:54;;;;;;;8.07;3.30;;;29.60;79.10;29.30;96188.00;;;;5102324;28;20296;-70
2021/07/14 12:19:45;;;;;;;3.97;2.40;;;29.60;80.70;29.60;96263.00;;;;5108950;28;20601;-69
2021/07/14 12:22:35;;;;;;;6.75;2.97;;;29.50;81.40;29.20;96266.00;;;;5107946;28;20233;-69
2021/07/14 12:25:24;;;;;;;6.05;4.07;;;29.30;83.80;27.90;96261.00;;;;5107939;28;20198;-70
2021/07/14 12:28:16;;;;;;;7.50;3.17;;;28.90;84.20;27.50;96187.00;;;;5109016;28;20224;-70
2021/07/14 12:31:11;;;;;;;5.60;3.00;;;28.40;83.90;27.80;96248.00;;;;5108873;28;20215;-72
2021/07/14 12:34:01;;;;;;;7.23;4.30;;;28.40;86.50;29.00;96196.00;;;;5107423;28;20203;-71
2021/07/14 12:36:50;;;;;;;9.10;3.17;;;28.40;89.70;29.40;96208.00;;;;5108531;28;20227;-70
2021/07/14 12:39:39;;;;;;;9.82;3.10;;;28.80;87.80;29.30;96210.00;;;;5107210;28;20205;-71
2021/07/14 12:42:28;;;;;;;8.23;2.88;;;29.00;84.50;30.40;96215.00;;;;5108981;28;20228;-71